Time;durP1;ratioP1;P1;durP2;ratioP2;P2;SDS_P1;SDS_P2;PMS_P1;PMS_P2;Temp;Humidity;BMP_temperature;BMP_pressure;BME280_temperature;BME280_humidity;BME280_pressure;Samples;Min_cycle;Max_cycle;Signal;HPM_P1;HPM_P2
2022/03/16 00:01:46;;;;;;;8.07;7.23;;;5.80;93.50;;;;;;939560;149;27704;-76
2022/03/16 00:04:13;;;;;;;7.23;6.63;;;5.80;93.60;;;;;;938026;148;27366;-75
2022/03/16 00:06:39;;;;;;;6.40;5.80;;;5.80;93.60;;;;;;938152;148;27391;-75
2022/03/16 00:09:06;;;;;;;7.07;6.37;;;5.70;93.70;;;;;;936531;149;27370;-77
2022/03/16 00:11:32;;;;;;;6.37;5.77;;;5.70;93.70;;;;;;925600;152;27385;-76
2022/03/16 00:13:59;;;;;;;7.10;6.40;;;5.70;93.80;;;;;;925463;153;27317;-75
2022/03/16 00:16:26;;;;;;;10.67;6.47;;;5.70;94.00;;;;;;927401;153;27329;-75
2022/03/16 00:18:52;;;;;;;11.03;7.13;;;5.70;94.20;;;;;;932070;151;27299;-75
2022/03/16 00:21:19;;;;;;;22.43;8.40;;;5.70;94.30;;;;;;930582;151;27469;-78
2022/03/16 00:23:45;;;;;;;18.10;7.87;;;5.70;94.50;;;;;;938144;151;27395;-75
2022/03/16 00:26:12;;;;;;;6.70;6.07;;;5.80;94.60;;;;;;928519;151;27274;-76
2022/03/16 00:28:39;;;;;;;7.03;6.33;;;5.80;94.80;;;;;;926027;151;27339;-75
2022/03/16 00:31:05;;;;;;;7.20;6.50;;;5.90;95.00;;;;;;939450;149;27338;-76
2022/03/16 00:33:32;;;;;;;7.00;6.30;;;5.90;95.10;;;;;;926477;151;27353;-78
2022/03/16 00:35:58;;;;;;;8.20;7.20;;;6.00;95.20;;;;;;937209;151;27381;-76
2022/03/16 00:38:25;;;;;;;8.17;7.20;;;6.10;95.30;;;;;;937920;151;27411;-75
2022/03/16 00:40:52;;;;;;;7.83;7.07;;;6.20;95.30;;;;;;937762;151;27435;-76
2022/03/16 00:43:18;;;;;;;8.77;7.83;;;6.20;95.40;;;;;;938090;151;27337;-76
2022/03/16 00:45:45;;;;;;;7.83;7.13;;;6.30;95.50;;;;;;939353;151;27324;-76
2022/03/16 00:48:11;;;;;;;9.50;7.13;;;6.40;95.50;;;;;;929749;151;27383;-77
2022/03/16 00:50:38;;;;;;;10.23;7.87;;;6.50;95.50;;;;;;924860;151;29065;-75
2022/03/16 00:53:04;;;;;;;8.67;7.87;;;6.60;95.40;;;;;;938627;151;27326;-76
2022/03/16 00:55:31;;;;;;;8.87;7.97;;;6.60;95.10;;;;;;938272;151;27302;-75
2022/03/16 00:57:58;;;;;;;9.07;8.03;;;6.70;95.10;;;;;;927061;151;27363;-75
2022/03/16 01:00:24;;;;;;;8.87;7.97;;;6.80;95.20;;;;;;929502;151;27519;-75
2022/03/16 01:02:53;;;;;;;9.53;7.67;;;6.80;95.30;;;;;;924661;153;27337;-75
2022/03/16 01:05:17;;;;;;;8.73;7.90;;;6.90;95.40;;;;;;926948;151;27354;-75
2022/03/16 01:07:44;;;;;;;11.97;9.37;;;6.90;95.50;;;;;;935935;151;27764;-77
2022/03/16 01:10:11;;;;;;;19.60;9.57;;;7.00;95.50;;;;;;937491;149;27555;-78
2022/03/16 01:12:37;;;;;;;17.20;8.87;;;7.10;95.70;;;;;;935032;150;27362;-76
2022/03/16 01:15:04;;;;;;;34.20;11.17;;;7.20;95.60;;;;;;936940;148;27315;-75
2022/03/16 01:17:30;;;;;;;31.43;10.57;;;7.20;95.60;;;;;;943781;147;27414;-76
2022/03/16 01:19:57;;;;;;;15.57;9.27;;;7.20;95.60;;;;;;938688;148;27300;-75
2022/03/16 01:22:23;;;;;;;20.37;9.93;;;7.30;95.70;;;;;;940617;148;27310;-78
2022/03/16 01:24:50;;;;;;;22.00;9.63;;;7.30;95.60;;;;;;937198;148;27352;-75
2022/03/16 01:27:17;;;;;;;41.97;12.53;;;7.40;95.60;;;;;;937479;148;27359;-76
2022/03/16 01:29:43;;;;;;;43.23;13.10;;;7.40;95.60;;;;;;944248;147;27319;-75
2022/03/16 01:32:10;;;;;;;38.43;13.70;;;7.50;95.60;;;;;;931750;150;27328;-75
2022/03/16 01:34:36;;;;;;;54.03;14.30;;;7.50;95.70;;;;;;936555;148;27360;-77
2022/03/16 01:37:03;;;;;;;40.80;14.40;;;7.60;95.70;;;;;;940061;148;27441;-79
2022/03/16 01:39:30;;;;;;;70.80;14.10;;;7.60;95.70;;;;;;937629;148;27685;-75
2022/03/16 01:41:56;;;;;;;86.63;17.17;;;7.60;95.70;;;;;;937993;148;27343;-75
2022/03/16 01:44:44;;;;;;;77.40;15.77;;;7.70;95.80;;;;;;944180;147;27244;-76
2022/03/16 01:47:10;;;;;;;78.40;16.80;;;7.70;95.80;;;;;;942186;147;27432;-76
2022/03/16 01:49:37;;;;;;;68.63;15.87;;;7.70;95.70;;;;;;932927;150;27855;-75
2022/03/16 01:52:03;;;;;;;87.47;15.73;;;7.70;95.80;;;;;;932730;150;27871;-75
2022/03/16 01:54:30;;;;;;;68.00;14.53;;;7.80;95.90;;;;;;937066;147;27447;-76
2022/03/16 01:56:56;;;;;;;76.77;16.20;;;7.80;95.80;;;;;;937695;148;27366;-76
2022/03/16 01:59:23;;;;;;;68.13;15.13;;;7.80;95.80;;;;;;942754;148;27864;-76
2022/03/16 02:01:50;;;;;;;54.17;14.30;;;7.80;95.80;;;;;;923001;151;27411;-77
2022/03/16 02:04:16;;;;;;;88.80;16.80;;;7.80;95.80;;;;;;933853;148;27408;-76
2022/03/16 02:06:43;;;;;;;58.73;14.47;;;7.90;95.90;;;;;;933095;150;27318;-75
2022/03/16 02:09:09;;;;;;;47.33;12.20;;;7.90;95.90;;;;;;940319;147;27369;-75
2022/03/16 02:11:36;;;;;;;29.20;11.70;;;7.90;96.00;;;;;;935490;149;27418;-79
2022/03/16 02:14:03;;;;;;;52.03;13.20;;;7.90;96.00;;;;;;911220;152;27377;-76
2022/03/16 02:16:29;;;;;;;40.67;13.70;;;7.90;96.00;;;;;;928796;150;27931;-75
2022/03/16 02:18:56;;;;;;;52.87;12.73;;;7.90;96.10;;;;;;920099;152;27713;-77
2022/03/16 02:21:22;;;;;;;57.57;13.93;;;8.00;96.10;;;;;;927487;150;27307;-77
2022/03/16 02:23:49;;;;;;;43.63;13.50;;;8.00;96.20;;;;;;921653;150;27482;-75
2022/03/16 02:26:15;;;;;;;47.10;13.90;;;8.00;96.10;;;;;;926727;150;27356;-76
2022/03/16 02:28:42;;;;;;;26.13;11.53;;;8.00;96.10;;;;;;926751;149;27290;-76
2022/03/16 02:31:09;;;;;;;30.07;11.43;;;8.10;96.00;;;;;;928492;149;27383;-79
2022/03/16 02:33:35;;;;;;;44.90;13.17;;;8.10;96.00;;;;;;922740;150;27425;-76
2022/03/16 02:36:02;;;;;;;37.50;13.57;;;8.10;95.90;;;;;;922771;150;27382;-75
2022/03/16 02:38:28;;;;;;;40.33;12.57;;;8.10;95.70;;;;;;921631;150;27390;-76
2022/03/16 02:40:55;;;;;;;24.63;12.47;;;8.10;95.60;;;;;;922466;150;27389;-75
2022/03/16 02:43:22;;;;;;;27.23;12.27;;;8.10;95.60;;;;;;923989;150;27358;-76
2022/03/16 02:45:48;;;;;;;31.23;12.43;;;8.10;95.60;;;;;;921951;150;27385;-76
2022/03/16 02:48:15;;;;;;;41.27;13.30;;;8.10;95.50;;;;;;923504;150;27782;-78
2022/03/16 02:50:41;;;;;;;30.17;11.77;;;8.10;95.50;;;;;;922018;150;27399;-76
2022/03/16 02:53:08;;;;;;;24.63;12.57;;;8.10;95.50;;;;;;921481;150;27402;-76
2022/03/16 02:55:35;;;;;;;28.40;11.90;;;8.00;95.60;;;;;;921649;150;27337;-76
2022/03/16 02:58:01;;;;;;;21.23;11.87;;;8.10;95.80;;;;;;920749;150;27414;-76
2022/03/16 03:00:28;;;;;;;33.57;13.63;;;8.00;95.90;;;;;;927769;150;27388;-75
2022/03/16 03:02:54;;;;;;;27.13;13.10;;;8.00;95.90;;;;;;929966;149;27441;-75
2022/03/16 03:05:21;;;;;;;36.23;13.53;;;8.10;96.10;;;;;;928447;149;27328;-75
2022/03/16 03:07:47;;;;;;;31.67;12.37;;;8.10;96.10;;;;;;930355;150;27852;-76
2022/03/16 03:10:14;;;;;;;29.37;13.70;;;8.10;96.20;;;;;;928846;149;27414;-76
2022/03/16 03:12:41;;;;;;;34.27;15.57;;;8.10;95.90;;;;;;927956;149;27535;-78
2022/03/16 03:15:11;;;;;;;26.43;13.97;;;8.10;96.30;;;;;;927941;149;28012;-76
2022/03/16 03:17:34;;;;;;;19.37;12.83;;;8.20;96.20;;;;;;927668;149;27379;-75
2022/03/16 03:20:00;;;;;;;26.17;13.77;;;8.20;96.10;;;;;;929249;149;27312;-75
2022/03/16 03:22:30;;;;;;;31.77;13.27;;;8.20;96.00;;;;;;930128;149;27304;-75
2022/03/16 03:24:54;;;;;;;28.13;14.03;;;8.20;95.90;;;;;;928562;149;27457;-79
2022/03/16 03:27:20;;;;;;;48.67;15.57;;;8.20;95.80;;;;;;928257;149;27446;-76
2022/03/16 03:29:47;;;;;;;38.33;15.40;;;8.20;95.80;;;;;;925802;149;27370;-76
2022/03/16 03:32:13;;;;;;;39.37;14.13;;;8.10;95.70;;;;;;928036;149;27379;-75
2022/03/16 03:34:40;;;;;;;30.77;12.07;;;8.10;95.70;;;;;;927535;149;27356;-77
2022/03/16 03:37:07;;;;;;;27.97;12.43;;;8.10;95.60;;;;;;929973;149;27930;-76
2022/03/16 03:39:33;;;;;;;44.87;14.60;;;8.10;95.60;;;;;;927928;149;27375;-75
2022/03/16 03:42:00;;;;;;;41.47;13.93;;;8.10;95.60;;;;;;927915;149;28422;-76
2022/03/16 03:44:26;;;;;;;26.80;12.80;;;8.10;95.70;;;;;;929941;149;27416;-75
2022/03/16 03:46:53;;;;;;;30.60;14.17;;;8.00;95.60;;;;;;927503;149;27443;-76
2022/03/16 03:49:19;;;;;;;36.73;13.80;;;8.00;95.60;;;;;;929375;149;27452;-75
2022/03/16 03:51:46;;;;;;;33.40;13.47;;;8.00;95.70;;;;;;926944;149;27380;-75
2022/03/16 03:54:13;;;;;;;42.83;14.10;;;8.00;95.60;;;;;;928036;149;27210;-76
2022/03/16 03:56:39;;;;;;;31.53;13.97;;;8.00;95.60;;;;;;928310;149;27320;-76
2022/03/16 03:59:06;;;;;;;51.40;15.53;;;8.00;95.60;;;;;;928159;149;27406;-78
2022/03/16 04:01:32;;;;;;;44.10;14.30;;;8.00;95.70;;;;;;930311;149;27394;-78
2022/03/16 04:03:59;;;;;;;50.00;15.47;;;7.90;95.80;;;;;;929418;149;27481;-76
2022/03/16 04:06:26;;;;;;;39.97;15.43;;;7.90;95.70;;;;;;927760;149;27361;-76
2022/03/16 04:08:52;;;;;;;47.43;14.90;;;7.90;95.70;;;;;;929300;149;27330;-76
2022/03/16 04:11:19;;;;;;;29.87;15.07;;;7.90;95.70;;;;;;927132;149;27307;-75
2022/03/16 04:13:45;;;;;;;37.13;15.10;;;7.90;96.10;;;;;;939584;148;27503;-77
2022/03/16 04:16:12;;;;;;;44.47;14.33;;;7.90;95.90;;;;;;941110;148;27405;-76
2022/03/16 04:18:39;;;;;;;36.80;14.13;;;7.90;95.90;;;;;;940317;148;27314;-75
2022/03/16 04:21:05;;;;;;;31.80;12.93;;;7.90;95.80;;;;;;941495;148;27798;-76
2022/03/16 04:23:32;;;;;;;31.80;13.90;;;7.90;95.90;;;;;;943643;148;27355;-77
2022/03/16 04:25:58;;;;;;;31.00;11.93;;;7.80;95.90;;;;;;942428;148;27388;-78
2022/03/16 04:28:25;;;;;;;44.07;14.80;;;7.80;96.00;;;;;;943919;148;27387;-75
2022/03/16 04:30:51;;;;;;;24.03;13.53;;;7.80;96.10;;;;;;945035;148;27312;-75
2022/03/16 04:33:18;;;;;;;46.63;13.87;;;7.80;96.10;;;;;;943660;148;27337;-76
2022/03/16 04:35:45;;;;;;;42.43;15.07;;;7.80;96.20;;;;;;941497;148;27474;-77
2022/03/16 04:38:11;;;;;;;39.73;15.10;;;7.80;96.20;;;;;;941937;148;27361;-77
2022/03/16 04:40:38;;;;;;;34.67;14.73;;;7.80;96.10;;;;;;944405;148;27374;-76
2022/03/16 04:43:04;;;;;;;53.30;16.50;;;7.80;96.10;;;;;;943300;148;28209;-75
2022/03/16 04:45:31;;;;;;;47.27;16.27;;;7.90;96.30;;;;;;943235;148;27325;-76
2022/03/16 04:47:58;;;;;;;54.23;16.40;;;7.80;96.10;;;;;;943586;148;27386;-75
2022/03/16 04:50:24;;;;;;;48.67;15.83;;;7.80;96.10;;;;;;941689;148;27315;-78
2022/03/16 04:52:51;;;;;;;46.77;14.90;;;7.80;96.20;;;;;;943306;148;27451;-74
2022/03/16 04:55:17;;;;;;;39.90;15.67;;;7.80;96.20;;;;;;943920;148;27346;-75
2022/03/16 04:57:44;;;;;;;51.93;14.67;;;7.80;96.10;;;;;;939968;148;27365;-75
2022/03/16 05:00:11;;;;;;;38.67;16.10;;;7.80;96.10;;;;;;942326;148;27416;-76
2022/03/16 05:02:37;;;;;;;50.57;15.27;;;7.80;96.10;;;;;;940672;148;27330;-78
2022/03/16 05:05:04;;;;;;;33.37;15.10;;;7.80;96.10;;;;;;942749;148;27463;-75
2022/03/16 05:07:30;;;;;;;32.47;14.50;;;7.80;96.10;;;;;;943516;148;27275;-75
2022/03/16 05:09:57;;;;;;;49.33;15.87;;;7.80;96.10;;;;;;941950;148;27342;-76
2022/03/16 05:12:24;;;;;;;53.73;15.93;;;7.80;96.10;;;;;;944078;148;27363;-76
2022/03/16 05:14:50;;;;;;;30.63;12.73;;;7.70;96.10;;;;;;918332;151;27361;-76
2022/03/16 05:17:17;;;;;;;46.40;15.67;;;7.70;96.10;;;;;;936609;149;27921;-76
2022/03/16 05:19:43;;;;;;;24.90;12.77;;;7.70;96.20;;;;;;936767;149;27746;-75
2022/03/16 05:22:10;;;;;;;34.90;14.40;;;7.70;96.00;;;;;;931829;152;27361;-75
2022/03/16 05:24:37;;;;;;;43.47;13.97;;;7.70;95.80;;;;;;918452;152;27265;-75
2022/03/16 05:27:03;;;;;;;53.93;15.23;;;7.70;95.90;;;;;;935861;152;27350;-76
2022/03/16 05:29:30;;;;;;;57.20;14.47;;;7.60;95.90;;;;;;935356;149;27464;-78
2022/03/16 05:31:56;;;;;;;69.40;16.00;;;7.60;95.90;;;;;;935777;149;27371;-75
2022/03/16 05:34:23;;;;;;;75.63;18.07;;;7.60;95.90;;;;;;932824;149;27288;-76
2022/03/16 05:36:50;;;;;;;63.87;14.70;;;7.60;95.70;;;;;;934715;149;27322;-78
2022/03/16 05:39:16;;;;;;;71.60;17.77;;;7.50;95.80;;;;;;933247;152;27326;-76
2022/03/16 05:41:43;;;;;;;80.03;17.03;;;7.50;95.90;;;;;;933973;152;27374;-75
2022/03/16 05:44:10;;;;;;;52.77;14.43;;;7.50;95.90;;;;;;932963;152;27329;-76
2022/03/16 05:46:36;;;;;;;54.97;15.43;;;7.50;95.90;;;;;;934115;151;27395;-76
2022/03/16 05:49:02;;;;;;;53.40;14.23;;;7.50;95.90;;;;;;936928;149;27308;-76
2022/03/16 05:51:29;;;;;;;50.03;15.20;;;7.50;96.10;;;;;;937449;152;27374;-78
2022/03/16 05:53:56;;;;;;;48.70;14.57;;;7.40;96.20;;;;;;922276;154;27421;-75
2022/03/16 05:56:22;;;;;;;46.13;13.77;;;7.40;96.30;;;;;;920644;154;28339;-75
2022/03/16 05:58:49;;;;;;;46.20;14.63;;;7.40;96.20;;;;;;939125;151;27327;-75
2022/03/16 06:01:15;;;;;;;43.70;13.90;;;7.40;96.40;;;;;;936046;149;27487;-76
2022/03/16 06:03:42;;;;;;;56.53;15.60;;;7.40;96.60;;;;;;934744;150;27251;-76
2022/03/16 06:06:09;;;;;;;60.47;15.93;;;7.40;96.50;;;;;;933494;150;27346;-77
2022/03/16 06:08:35;;;;;;;68.67;15.30;;;7.40;96.70;;;;;;932586;151;27471;-75
2022/03/16 06:11:02;;;;;;;46.93;14.43;;;7.40;96.70;;;;;;933231;149;27375;-75
2022/03/16 06:13:28;;;;;;;48.97;14.13;;;7.50;97.10;;;;;;933039;151;27486;-75
2022/03/16 06:15:55;;;;;;;58.30;13.23;;;7.50;97.00;;;;;;937738;148;27433;-76
2022/03/16 06:18:22;;;;;;;50.20;14.00;;;7.50;97.00;;;;;;944352;148;27456;-78
2022/03/16 06:20:48;;;;;;;34.37;14.60;;;7.50;97.00;;;;;;942918;148;27399;-75
2022/03/16 06:23:15;;;;;;;40.90;13.97;;;7.50;97.00;;;;;;946750;150;27354;-75
2022/03/16 06:25:41;;;;;;;45.67;14.50;;;7.50;97.00;;;;;;946041;149;27404;-76
2022/03/16 06:28:08;;;;;;;43.67;13.73;;;7.60;96.80;;;;;;944866;148;27287;-77
2022/03/16 06:30:34;;;;;;;47.73;14.07;;;7.60;96.60;;;;;;944952;150;27347;-75
2022/03/16 06:33:01;;;;;;;36.07;13.53;;;7.60;96.30;;;;;;946116;147;29090;-76
2022/03/16 06:35:28;;;;;;;44.23;13.77;;;7.50;96.30;;;;;;947993;150;27403;-76
2022/03/16 06:37:54;;;;;;;41.10;12.93;;;7.50;96.20;;;;;;946836;150;27912;-76
2022/03/16 06:40:21;;;;;;;29.40;12.40;;;7.50;96.20;;;;;;947053;149;27355;-76
2022/03/16 06:42:53;;;;;;;39.93;12.30;;;7.50;96.30;;;;;;945447;147;27390;-75
2022/03/16 06:45:20;;;;;;;32.53;11.40;;;7.50;96.40;;;;;;943675;148;27354;-75
2022/03/16 06:47:46;;;;;;;51.43;12.40;;;7.50;96.50;;;;;;947288;148;27303;-75
2022/03/16 06:50:13;;;;;;;36.60;11.93;;;7.50;96.50;;;;;;947108;148;27334;-76
2022/03/16 06:52:40;;;;;;;26.97;11.93;;;7.50;96.40;;;;;;946465;148;28568;-77
2022/03/16 06:55:09;;;;;;;32.57;12.07;;;7.50;96.60;;;;;;944867;150;27346;-75
2022/03/16 06:57:35;;;;;;;35.07;11.47;;;7.50;96.60;;;;;;946090;148;27260;-75
2022/03/16 07:00:02;;;;;;;44.30;12.43;;;7.50;96.70;;;;;;947706;149;27324;-75
2022/03/16 07:02:28;;;;;;;30.50;10.17;;;7.50;96.60;;;;;;947447;150;27370;-78
2022/03/16 07:04:55;;;;;;;29.67;10.20;;;7.60;96.80;;;;;;947271;148;27436;-75
2022/03/16 07:07:25;;;;;;;19.80;9.13;;;7.60;96.90;;;;;;946038;148;27258;-76
2022/03/16 07:09:48;;;;;;;14.27;10.03;;;7.60;96.90;;;;;;948040;148;27327;-76
2022/03/16 07:12:15;;;;;;;21.70;10.10;;;7.70;96.90;;;;;;947671;149;27391;-76
2022/03/16 07:14:41;;;;;;;29.30;10.37;;;7.70;96.80;;;;;;940908;150;27356;-77
2022/03/16 07:17:08;;;;;;;12.53;9.03;;;7.80;96.80;;;;;;942207;147;27353;-74
2022/03/16 07:19:34;;;;;;;11.47;8.70;;;7.80;96.80;;;;;;938498;148;27324;-76
2022/03/16 07:22:01;;;;;;;15.90;10.20;;;7.90;96.70;;;;;;932954;150;27467;-76
2022/03/16 07:24:28;;;;;;;16.37;9.67;;;7.90;96.70;;;;;;933268;150;27425;-74
2022/03/16 07:26:55;;;;;;;16.10;9.23;;;7.90;96.60;;;;;;934089;150;27274;-76
2022/03/16 07:29:21;;;;;;;16.90;8.53;;;8.00;96.80;;;;;;931784;150;27405;-76
2022/03/16 07:31:47;;;;;;;31.93;11.03;;;8.00;96.90;;;;;;931992;150;28044;-74
2022/03/16 07:34:14;;;;;;;19.30;10.40;;;8.00;96.60;;;;;;934016;149;27336;-75
2022/03/16 07:36:40;;;;;;;16.90;11.03;;;8.10;96.30;;;;;;933748;150;27304;-76
2022/03/16 07:39:07;;;;;;;16.50;8.40;;;8.10;96.10;;;;;;932704;150;27374;-76
2022/03/16 07:41:34;;;;;;;17.77;8.67;;;8.10;96.00;;;;;;930735;150;27387;-75
2022/03/16 07:44:01;;;;;;;23.67;9.20;;;8.10;96.10;;;;;;933633;150;27280;-75
2022/03/16 07:46:27;;;;;;;23.87;9.67;;;8.20;96.40;;;;;;932775;150;27374;-75
2022/03/16 07:48:53;;;;;;;18.60;9.47;;;8.20;96.60;;;;;;933372;150;27370;-76
2022/03/16 07:51:20;;;;;;;38.57;10.03;;;8.30;96.60;;;;;;933110;150;27395;-77
2022/03/16 07:53:47;;;;;;;20.13;9.27;;;8.30;96.40;;;;;;933456;150;27450;-75
2022/03/16 07:56:13;;;;;;;18.50;9.07;;;8.40;96.40;;;;;;931474;150;28422;-75
2022/03/16 07:58:41;;;;;;;16.23;9.00;;;8.40;96.50;;;;;;933290;150;27315;-78
2022/03/16 08:01:06;;;;;;;14.63;9.03;;;8.50;96.70;;;;;;929138;150;27305;-76
2022/03/16 08:03:33;;;;;;;13.30;8.00;;;8.60;96.30;;;;;;933796;150;27260;-76
2022/03/16 08:06:00;;;;;;;38.23;9.67;;;8.70;96.50;;;;;;933345;150;28013;-76
2022/03/16 08:08:26;;;;;;;34.57;9.37;;;8.80;96.20;;;;;;930300;150;27405;-76
2022/03/16 08:10:53;;;;;;;23.27;8.97;;;8.80;95.80;;;;;;932156;150;27344;-76
2022/03/16 08:13:19;;;;;;;23.33;8.20;;;8.90;95.60;;;;;;932146;150;27326;-75
2022/03/16 08:15:46;;;;;;;42.37;9.93;;;8.90;95.60;;;;;;928048;150;27464;-75
2022/03/16 08:18:12;;;;;;;25.63;13.47;;;8.90;95.60;;;;;;921832;150;27391;-78
2022/03/16 08:20:39;;;;;;;29.33;10.10;;;9.00;95.70;;;;;;921397;150;27429;-75
2022/03/16 08:23:06;;;;;;;22.93;9.80;;;9.00;95.50;;;;;;922044;150;27760;-76
2022/03/16 08:25:32;;;;;;;12.17;8.10;;;9.10;95.40;;;;;;922372;150;27364;-75
2022/03/16 08:28:02;;;;;;;13.03;9.37;;;9.10;95.30;;;;;;921382;150;27838;-75
2022/03/16 08:30:28;;;;;;;18.40;8.47;;;9.10;95.00;;;;;;921677;150;27387;-76
2022/03/16 08:32:55;;;;;;;11.90;8.90;;;9.20;95.40;;;;;;923187;150;28817;-75
2022/03/16 08:35:23;;;;;;;13.17;9.43;;;9.30;95.50;;;;;;922265;150;27307;-76
2022/03/16 08:37:48;;;;;;;15.83;9.20;;;9.30;95.60;;;;;;921566;150;27861;-75
2022/03/16 08:40:16;;;;;;;16.83;9.87;;;9.40;95.80;;;;;;920165;150;27279;-78
2022/03/16 08:42:41;;;;;;;12.93;9.17;;;9.50;95.80;;;;;;922282;150;27362;-75
2022/03/16 08:45:08;;;;;;;16.20;9.07;;;9.60;95.80;;;;;;922702;150;27493;-77
2022/03/16 08:47:34;;;;;;;11.00;8.23;;;9.60;95.80;;;;;;921466;150;27306;-76
2022/03/16 08:50:01;;;;;;;12.80;8.57;;;9.80;95.70;;;;;;920261;150;27347;-76
2022/03/16 08:52:28;;;;;;;8.63;7.83;;;9.80;95.60;;;;;;921643;150;27330;-76
2022/03/16 08:54:54;;;;;;;9.90;8.90;;;9.90;95.80;;;;;;922333;150;27354;-78
2022/03/16 08:57:23;;;;;;;9.00;8.13;;;10.10;96.00;;;;;;921128;150;27705;-75
2022/03/16 08:59:50;;;;;;;11.93;9.17;;;10.30;96.20;;;;;;921254;150;27357;-75
2022/03/16 09:02:16;;;;;;;8.80;8.00;;;10.40;96.20;;;;;;921274;150;27376;-76
2022/03/16 09:04:43;;;;;;;9.30;8.43;;;10.70;96.60;;;;;;921769;150;27460;-79
2022/03/16 09:07:10;;;;;;;9.03;8.20;;;10.90;96.90;;;;;;921711;150;27346;-77
2022/03/16 09:09:36;;;;;;;8.87;8.07;;;11.20;97.20;;;;;;922284;150;27513;-75
2022/03/16 09:12:03;;;;;;;8.67;7.87;;;11.60;97.40;;;;;;920315;150;27388;-75
2022/03/16 09:14:29;;;;;;;8.30;7.60;;;11.90;97.50;;;;;;920944;150;27577;-76
2022/03/16 09:16:56;;;;;;;8.77;7.67;;;12.40;97.70;;;;;;938457;148;27359;-78
2022/03/16 09:19:23;;;;;;;7.37;6.78;;;12.90;98.00;;;;;;944405;147;27479;-77
2022/03/16 09:21:49;;;;;;;8.05;7.35;;;13.50;98.60;;;;;;945272;148;27454;-77
2022/03/16 09:24:16;;;;;;;7.35;6.72;;;14.20;98.60;;;;;;943139;148;27360;-77
2022/03/16 09:26:42;;;;;;;7.35;6.75;;;14.90;98.30;;;;;;943199;148;27468;-76
2022/03/16 09:29:09;;;;;;;7.37;6.78;;;15.60;96.30;;;;;;947339;148;27297;-80
2022/03/16 09:31:38;;;;;;;7.42;6.83;;;16.20;94.10;;;;;;942986;148;27445;-80
2022/03/16 09:34:09;;;;;;;7.33;6.70;;;16.60;92.60;;;;;;943536;148;27372;-77
2022/03/16 09:36:37;;;;;;;7.42;6.78;;;17.00;91.40;;;;;;943955;148;27357;-77
2022/03/16 09:39:04;;;;;;;9.05;8.25;;;17.30;89.90;;;;;;943315;148;27424;-77
2022/03/16 09:41:31;;;;;;;10.05;9.15;;;17.60;86.50;;;;;;942787;148;27314;-79
2022/03/16 09:43:57;;;;;;;9.05;8.25;;;17.80;84.60;;;;;;943833;148;27368;-77
2022/03/16 09:46:27;;;;;;;8.28;7.60;;;17.90;83.50;;;;;;944340;148;27356;-77
2022/03/16 09:48:54;;;;;;;7.95;7.28;;;18.00;82.00;;;;;;942904;148;27340;-77
2022/03/16 09:51:20;;;;;;;7.17;6.58;;;18.10;80.60;;;;;;942876;148;27415;-79
2022/03/16 09:53:46;;;;;;;6.30;5.80;;;18.10;79.30;;;;;;944034;148;27374;-76
2022/03/16 09:56:13;;;;;;;7.08;6.47;;;18.10;78.40;;;;;;942652;148;27862;-76
2022/03/16 09:58:39;;;;;;;7.30;6.60;;;18.10;78.00;;;;;;945320;148;27336;-77
2022/03/16 10:01:06;;;;;;;6.75;6.25;;;18.10;77.50;;;;;;944671;148;27305;-77
2022/03/16 10:03:33;;;;;;;6.80;6.22;;;18.00;77.40;;;;;;944166;148;27323;-80
2022/03/16 10:05:59;;;;;;;7.12;6.53;;;18.00;76.40;;;;;;943923;148;27418;-77
2022/03/16 10:08:28;;;;;;;7.80;7.20;;;17.90;76.90;;;;;;943243;148;27414;-77
2022/03/16 10:13:52;;;;;;;7.05;6.45;;;18.00;78.10;;;;;;944795;148;27416;-78
2022/03/16 10:16:18;;;;;;;7.37;6.78;;;18.10;78.40;;;;;;938254;148;27387;-79
2022/03/16 10:18:46;;;;;;;6.45;5.95;;;18.20;77.50;;;;;;928152;149;27361;-77
2022/03/16 10:21:12;;;;;;;6.97;6.37;;;18.30;76.80;;;;;;926960;149;27363;-77
2022/03/16 10:23:38;;;;;;;7.05;6.35;;;18.30;75.90;;;;;;930771;150;27323;-78
2022/03/16 10:26:05;;;;;;;7.50;6.90;;;18.40;75.70;;;;;;928354;150;27306;-78
2022/03/16 10:28:31;;;;;;;7.78;7.17;;;18.40;75.40;;;;;;931327;150;27356;-78
2022/03/16 10:31:06;;;;;;;7.05;6.45;;;18.50;75.10;;;;;;934565;150;27386;-78
2022/03/16 10:33:33;;;;;;;7.85;7.25;;;18.60;74.20;;;;;;935413;146;27384;-78
2022/03/16 10:36:05;;;;;;;7.83;7.22;;;18.70;73.50;;;;;;932942;148;27392;-78
2022/03/16 10:38:29;;;;;;;7.85;7.20;;;18.70;72.70;;;;;;930221;148;27370;-78
2022/03/16 10:40:56;;;;;;;7.70;7.10;;;18.70;72.00;;;;;;930906;148;27905;-77
2022/03/16 10:46:55;;;;;;;7.75;7.10;;;18.60;70.30;;;;;;931389;148;27412;-78
2022/03/16 10:48:42;;;;;;;9.33;7.50;;;18.50;70.30;;;;;;925065;148;27271;-79
2022/03/16 10:51:12;;;;;;;8.55;7.75;;;18.30;70.00;;;;;;930551;148;27320;-82
2022/03/16 10:53:35;;;;;;;8.70;7.72;;;18.30;69.90;;;;;;931209;148;27354;-78
2022/03/16 10:56:02;;;;;;;7.62;6.87;;;18.20;69.90;;;;;;930958;148;28453;-79
2022/03/16 10:58:28;;;;;;;7.83;7.12;;;18.10;70.00;;;;;;930929;148;27320;-80
2022/03/16 11:00:56;;;;;;;8.28;7.20;;;18.00;70.00;;;;;;933769;148;27418;-78
2022/03/16 11:03:24;;;;;;;8.20;7.47;;;17.90;70.00;;;;;;923705;150;27417;-80
2022/03/16 11:05:51;;;;;;;7.50;6.80;;;17.90;70.10;;;;;;935015;149;27386;-79
2022/03/16 11:08:17;;;;;;;8.03;7.33;;;17.90;70.10;;;;;;940540;149;27469;-79
2022/03/16 11:10:45;;;;;;;6.80;6.22;;;17.80;70.00;;;;;;941941;149;27314;-79
2022/03/16 11:13:29;;;;;;;6.70;5.90;;;17.70;69.20;;;;;;927454;149;27378;-79
2022/03/16 11:15:55;;;;;;;6.60;6.08;;;17.70;69.20;;;;;;925246;150;27381;-77
2022/03/16 11:18:23;;;;;;;6.37;5.83;;;17.60;69.40;;;;;;922163;150;27462;-78
2022/03/16 11:20:48;;;;;;;6.65;6.15;;;17.50;68.50;;;;;;938947;148;27684;-77
2022/03/16 11:26:24;;;;;;;7.40;6.80;;;17.30;68.50;;;;;;937534;148;27350;-80
2022/03/16 11:29:00;;;;;;;7.22;6.50;;;17.10;68.30;;;;;;932140;148;27376;-77
2022/03/16 11:31:28;;;;;;;6.92;6.35;;;17.00;68.40;;;;;;929799;148;27311;-77
2022/03/16 11:33:52;;;;;;;7.50;6.90;;;16.90;68.60;;;;;;935904;148;27317;-77
2022/03/16 11:36:34;;;;;;;6.97;6.37;;;16.90;69.00;;;;;;931362;148;27255;-78
2022/03/16 11:39:02;;;;;;;7.08;6.42;;;16.80;69.20;;;;;;929623;148;27395;-79
2022/03/16 11:41:27;;;;;;;7.22;6.62;;;16.80;69.90;;;;;;928927;148;27376;-77
2022/03/16 11:44:03;;;;;;;7.92;7.22;;;16.80;69.90;;;;;;931229;151;28509;-77
2022/03/16 11:46:29;;;;;;;7.83;7.12;;;16.80;69.90;;;;;;926474;148;27437;-77
2022/03/16 11:48:56;;;;;;;7.13;6.43;;;16.80;68.90;;;;;;932151;148;27267;-78
2022/03/16 11:51:23;;;;;;;7.53;6.53;;;16.80;69.40;;;;;;910110;152;27475;-77
2022/03/16 11:53:57;;;;;;;7.53;6.92;;;16.80;69.20;;;;;;932004;148;27505;-78
2022/03/16 11:56:20;;;;;;;7.15;6.55;;;16.80;68.80;;;;;;931628;148;27398;-77
2022/03/16 11:58:47;;;;;;;9.35;6.42;;;16.80;68.80;;;;;;932830;148;27409;-78
2022/03/16 12:01:29;;;;;;;7.87;7.08;;;16.80;68.80;;;;;;932315;148;27386;-80
2022/03/16 12:04:19;;;;;;;7.05;6.45;;;16.80;68.50;;;;;;938623;148;27354;-77
2022/03/16 12:06:50;;;;;;;6.97;6.35;;;16.80;68.60;;;;;;936018;148;27369;-77
2022/03/16 12:09:20;;;;;;;7.47;6.78;;;16.80;68.90;;;;;;920629;148;27402;-78
2022/03/16 12:15:11;;;;;;;7.03;6.42;;;16.80;69.50;;;;;;930591;148;27415;-77
2022/03/16 12:17:55;;;;;;;7.47;6.78;;;16.90;69.00;;;;;;935141;146;27465;-77
2022/03/16 12:20:28;;;;;;;7.55;6.95;;;16.90;69.10;;;;;;942135;146;27284;-77
2022/03/16 12:23:05;;;;;;;8.00;7.30;;;17.00;68.60;;;;;;940081;148;27462;-80
2022/03/16 12:25:30;;;;;;;7.90;7.25;;;17.00;67.90;;;;;;939427;148;27445;-77
2022/03/16 12:30:41;;;;;;;8.18;7.37;;;17.00;67.40;;;;;;938223;148;27397;-79
2022/03/16 12:33:11;;;;;;;7.72;7.03;;;17.00;67.50;;;;;;938388;148;27442;-80
2022/03/16 12:35:37;;;;;;;7.95;7.25;;;16.90;67.20;;;;;;940506;148;27458;-77
2022/03/16 12:38:04;;;;;;;7.97;7.28;;;16.90;67.40;;;;;;938434;148;27458;-77
2022/03/16 12:40:31;;;;;;;8.48;7.37;;;16.90;67.30;;;;;;937715;148;27420;-77
2022/03/16 12:42:57;;;;;;;8.13;7.42;;;16.90;66.90;;;;;;937751;149;27434;-77
2022/03/16 12:45:25;;;;;;;7.72;7.03;;;16.90;66.60;;;;;;939070;149;27412;-79
2022/03/16 12:47:51;;;;;;;8.15;7.42;;;16.80;66.10;;;;;;937637;149;27353;-76
2022/03/16 12:50:17;;;;;;;7.60;7.00;;;16.80;66.30;;;;;;937622;149;27404;-77
2022/03/16 12:52:46;;;;;;;7.97;7.17;;;16.70;66.40;;;;;;937668;149;27274;-77
2022/03/16 12:55:12;;;;;;;8.27;7.57;;;16.70;66.90;;;;;;938765;149;27399;-77
2022/03/16 12:57:36;;;;;;;7.78;7.08;;;16.70;67.10;;;;;;937603;149;27324;-77